createdAt,value
2022-08-25T00:01:38.654Z,26.59
2022-08-25T00:04:11.053Z,26.57
2022-08-25T00:06:42.204Z,26.57
2022-08-25T00:09:09.880Z,26.50
2022-08-25T00:11:38.769Z,26.42
2022-08-25T00:14:13.132Z,26.26
2022-08-25T00:16:39.896Z,26.17
2022-08-25T00:19:11.155Z,26.22
2022-08-25T00:21:38.368Z,26.10
2022-08-25T00:24:05.222Z,26.09
2022-08-25T00:26:32.405Z,26.11
2022-08-25T00:29:01.808Z,26.10
2022-08-25T00:31:38.413Z,26.07
2022-08-25T00:34:08.634Z,26.06
2022-08-25T00:36:35.719Z,25.98
2022-08-25T00:39:02.373Z,26.02
2022-08-25T00:41:29.117Z,26.07
2022-08-25T00:44:01.861Z,26.07
2022-08-25T00:46:32.072Z,26.16
2022-08-25T00:49:28.000Z,26.13
2022-08-25T00:52:14.591Z,26.14
2022-08-25T00:54:48.413Z,26.11
2022-08-25T00:57:17.530Z,26.11
2022-08-25T00:59:46.006Z,26.08
2022-08-25T01:02:14.687Z,26.14
2022-08-25T01:04:48.664Z,26.10
2022-08-25T01:07:17.984Z,26.11
2022-08-25T01:09:46.480Z,26.07
2022-08-25T01:12:13.386Z,26.12
2022-08-25T01:14:40.092Z,26.06
2022-08-25T01:17:06.719Z,25.96
2022-08-25T01:19:36.184Z,25.88
2022-08-25T01:22:03.047Z,25.86
2022-08-25T01:24:37.711Z,25.77
2022-08-25T01:27:05.819Z,25.72
2022-08-25T01:29:33.074Z,25.70
2022-08-25T01:32:02.612Z,25.71
2022-08-25T01:34:31.811Z,25.78
2022-08-25T01:36:59.464Z,25.75
2022-08-25T01:39:28.408Z,25.66
2022-08-25T01:42:07.289Z,25.58
2022-08-25T01:44:36.972Z,25.54
2022-08-25T01:47:05.044Z,25.48
2022-08-25T01:49:32.671Z,25.42
2022-08-25T01:52:16.038Z,25.31
2022-08-25T01:54:42.790Z,25.23
2022-08-25T01:57:09.567Z,25.23
2022-08-25T01:59:36.212Z,25.19
2022-08-25T02:02:04.845Z,25.12
2022-08-25T02:04:33.038Z,25.13
2022-08-25T02:07:02.841Z,25.19
2022-08-25T02:09:29.516Z,25.14
2022-08-25T02:11:56.945Z,25.13
2022-08-25T02:14:24.050Z,25.07
2022-08-25T02:16:52.803Z,24.91
2022-08-25T02:19:20.542Z,24.92
2022-08-25T02:21:47.571Z,24.88
2022-08-25T02:24:14.620Z,24.90
2022-08-25T02:26:41.546Z,24.89
2022-08-25T02:29:09.323Z,24.73
2022-08-25T02:31:36.241Z,24.73
2022-08-25T02:34:03.701Z,24.81
2022-08-25T02:36:32.284Z,24.77
2022-08-25T02:38:59.517Z,24.68
2022-08-25T02:41:30.976Z,24.66
2022-08-25T02:43:58.719Z,24.69
2022-08-25T02:46:25.494Z,24.69
2022-08-25T02:48:53.401Z,24.60
2022-08-25T02:51:22.586Z,24.50
2022-08-25T02:53:49.950Z,24.49
2022-08-25T02:56:18.418Z,24.49
2022-08-25T02:58:46.096Z,24.51
2022-08-25T03:01:13.561Z,24.55
2022-08-25T03:03:43.456Z,24.52
2022-08-25T03:06:12.715Z,24.50
2022-08-25T03:08:39.649Z,24.48
2022-08-25T03:11:06.954Z,24.48
2022-08-25T03:13:33.810Z,24.32
2022-08-25T03:16:01.637Z,24.31
2022-08-25T03:18:30.333Z,24.31
2022-08-25T03:20:57.788Z,24.30
2022-08-25T03:23:24.898Z,24.32
2022-08-25T03:26:10.257Z,24.19
2022-08-25T03:28:36.936Z,24.19
2022-08-25T03:31:03.661Z,24.25
2022-08-25T03:33:31.019Z,24.26
2022-08-25T03:35:57.989Z,24.22
2022-08-25T03:38:25.443Z,24.14
2022-08-25T03:40:52.997Z,24.03
2022-08-25T03:43:20.407Z,23.92
2022-08-25T03:45:47.986Z,23.97
2022-08-25T03:48:16.437Z,24.09
2022-08-25T03:50:52.210Z,24.09
2022-08-25T03:53:19.950Z,24.12
2022-08-25T03:55:46.873Z,24.02
2022-08-25T03:58:13.561Z,24.04
2022-08-25T04:00:40.842Z,24.01
2022-08-25T04:03:07.874Z,24.05
2022-08-25T04:05:35.408Z,24.01
2022-08-25T04:08:02.339Z,23.98
2022-08-25T04:10:29.477Z,23.92
2022-08-25T04:12:57.161Z,23.81
2022-08-25T04:15:28.490Z,23.77
2022-08-25T04:17:59.163Z,23.87
2022-08-25T04:20:26.160Z,23.90
2022-08-25T04:22:53.055Z,23.96
2022-08-25T04:25:20.274Z,23.92
2022-08-25T04:27:47.043Z,23.78
2022-08-25T04:30:14.750Z,23.82
2022-08-25T04:32:41.389Z,23.77
2022-08-25T04:35:09.274Z,23.81
2022-08-25T04:37:36.029Z,23.87
2022-08-25T04:40:03.304Z,23.81
2022-08-25T04:42:30.058Z,23.76
2022-08-25T04:44:57.051Z,23.77
2022-08-25T04:47:23.954Z,23.77
2022-08-25T04:49:51.005Z,23.75
2022-08-25T04:52:17.671Z,23.65
2022-08-25T04:54:45.094Z,23.69
2022-08-25T04:57:11.771Z,23.66
2022-08-25T04:59:38.797Z,23.63
2022-08-25T05:02:06.811Z,23.66
2022-08-25T05:04:35.628Z,23.60
2022-08-25T05:07:02.895Z,23.57
2022-08-25T05:09:32.410Z,23.67
2022-08-25T05:12:00.729Z,23.65
2022-08-25T05:14:27.495Z,23.74
2022-08-25T05:16:57.686Z,23.76
2022-08-25T05:19:25.435Z,23.67
2022-08-25T05:22:09.769Z,23.70
2022-08-25T05:24:36.671Z,23.84
2022-08-25T05:27:04.143Z,23.86
2022-08-25T05:29:31.016Z,23.91
2022-08-25T05:31:57.736Z,23.99
2022-08-25T05:34:25.476Z,23.94
2022-08-25T05:36:52.186Z,24.04
2022-08-25T05:39:19.032Z,24.02
2022-08-25T05:41:45.711Z,24.00
2022-08-25T05:44:12.974Z,24.04
2022-08-25T05:46:39.785Z,24.01
2022-08-25T05:49:06.739Z,24.07
2022-08-25T05:51:34.189Z,24.02
2022-08-25T05:54:00.912Z,24.01
2022-08-25T05:56:27.597Z,24.05
2022-08-25T05:58:54.267Z,24.06
2022-08-25T06:01:45.576Z,24.09
2022-08-25T06:04:13.404Z,24.18
2022-08-25T06:06:40.765Z,24.22
2022-08-25T06:09:09.475Z,24.25
2022-08-25T06:11:38.314Z,24.26
2022-08-25T06:14:05.016Z,24.27
2022-08-25T06:16:31.984Z,24.27
2022-08-25T06:18:58.693Z,24.32
2022-08-25T06:21:25.588Z,24.32
2022-08-25T06:23:52.782Z,24.39
2022-08-25T06:26:21.079Z,24.44
2022-08-25T06:28:51.845Z,24.49
2022-08-25T06:31:19.252Z,24.50
2022-08-25T06:33:46.516Z,24.49
2022-08-25T06:36:13.252Z,24.60
2022-08-25T06:38:40.115Z,24.67
2022-08-25T06:41:07.843Z,24.79
2022-08-25T06:43:35.116Z,24.70
2022-08-25T06:46:36.257Z,24.69
2022-08-25T06:49:07.033Z,24.79
2022-08-25T06:51:36.360Z,24.81
2022-08-25T06:54:04.299Z,24.94
2022-08-25T06:56:30.978Z,24.90
2022-08-25T06:58:57.900Z,24.87
2022-08-25T07:01:27.301Z,24.90
2022-08-25T07:03:59.750Z,25.02
2022-08-25T07:06:28.032Z,24.99
2022-08-25T07:08:54.912Z,25.09
2022-08-25T07:11:21.653Z,25.07
2022-08-25T07:13:49.103Z,25.12
2022-08-25T07:16:18.126Z,25.10
2022-08-25T07:18:45.481Z,25.18
2022-08-25T07:21:13.201Z,25.19
2022-08-25T07:23:41.236Z,25.25
2022-08-25T07:26:36.893Z,25.32
2022-08-25T07:29:12.916Z,25.27
2022-08-25T07:31:39.994Z,25.31
2022-08-25T07:34:26.305Z,25.34
2022-08-25T07:36:54.675Z,25.39
2022-08-25T07:39:22.811Z,25.39
2022-08-25T07:41:52.404Z,25.42
2022-08-25T07:44:21.381Z,25.48
2022-08-25T07:46:48.614Z,25.55
2022-08-25T07:49:17.967Z,25.59
2022-08-25T07:52:04.205Z,25.64
2022-08-25T07:54:34.583Z,25.70
2022-08-25T07:57:05.636Z,25.75
2022-08-25T07:59:39.388Z,25.79
2022-08-25T08:02:18.000Z,25.83
2022-08-25T08:04:48.717Z,25.86
2022-08-25T08:07:43.186Z,25.90
2022-08-25T08:10:42.376Z,25.95
2022-08-25T08:13:00.649Z,25.99
2022-08-25T08:15:29.913Z,26.05
2022-08-25T08:17:58.126Z,26.11
2022-08-25T08:20:25.943Z,26.11
2022-08-25T08:22:52.621Z,26.16
2022-08-25T08:25:23.083Z,26.20
2022-08-25T08:27:54.965Z,26.29
2022-08-25T08:30:22.218Z,26.37
2022-08-25T08:33:09.186Z,26.43
2022-08-25T08:35:36.684Z,26.57
2022-08-25T08:38:03.626Z,26.52
2022-08-25T08:40:32.080Z,26.50
2022-08-25T08:43:14.615Z,26.54
2022-08-25T08:45:54.050Z,26.57
2022-08-25T08:48:23.731Z,26.66
2022-08-25T08:51:23.205Z,26.73
2022-08-25T08:53:57.181Z,26.78
2022-08-25T08:56:30.990Z,27.00
2022-08-25T08:59:13.176Z,27.16
2022-08-25T09:01:54.094Z,27.20
2022-08-25T09:04:27.365Z,27.20
2022-08-25T09:06:55.732Z,27.26
2022-08-25T09:09:28.918Z,27.29
2022-08-25T09:12:01.819Z,27.26
2022-08-25T09:14:53.940Z,27.35
2022-08-25T09:17:58.953Z,27.49
2022-08-25T09:21:07.179Z,27.59
2022-08-25T09:24:00.213Z,27.75
2022-08-25T09:26:36.235Z,27.91
2022-08-25T09:29:16.660Z,28.06
2022-08-25T09:31:43.723Z,28.28
2022-08-25T09:34:18.512Z,28.49
2022-08-25T09:36:48.693Z,28.64
2022-08-25T09:39:15.632Z,28.79
2022-08-25T09:41:53.229Z,28.85
2022-08-25T09:44:24.537Z,28.97
2022-08-25T09:47:02.270Z,29.15
2022-08-25T09:49:36.268Z,29.28
2022-08-25T09:52:22.938Z,29.41
2022-08-25T09:54:53.731Z,29.61
2022-08-25T09:57:44.694Z,29.77
2022-08-25T10:00:15.185Z,29.94
2022-08-25T10:02:44.123Z,30.14
2022-08-25T10:05:24.292Z,30.31
2022-08-25T10:07:57.587Z,30.45
2022-08-25T10:10:35.801Z,30.62
2022-08-25T10:13:03.656Z,30.96
2022-08-25T10:15:36.289Z,31.17
2022-08-25T10:18:15.464Z,31.19
2022-08-25T10:20:44.699Z,31.19
2022-08-25T10:23:14.327Z,31.43
2022-08-25T10:25:57.931Z,31.73
2022-08-25T10:31:51.969Z,31.95
2022-08-25T10:34:31.595Z,32.04
2022-08-25T10:37:21.114Z,32.04
2022-08-25T10:40:06.622Z,32.39
2022-08-25T10:42:35.066Z,32.72
2022-08-25T10:45:22.812Z,32.70
2022-08-25T10:48:02.325Z,32.62
2022-08-25T10:50:34.031Z,32.98
2022-08-25T10:53:35.873Z,33.32
2022-08-25T10:56:12.301Z,33.50
2022-08-25T10:59:07.516Z,32.53
2022-08-25T11:02:03.982Z,32.61
2022-08-25T11:04:36.747Z,32.70
2022-08-25T11:07:18.316Z,32.45
2022-08-25T11:09:49.233Z,32.75
2022-08-25T11:12:22.330Z,32.63
2022-08-25T11:15:00.594Z,32.72
2022-08-25T11:17:50.378Z,32.97
2022-08-25T11:21:15.341Z,33.22
2022-08-25T11:23:57.535Z,33.35
2022-08-25T11:26:36.594Z,33.34
2022-08-25T11:29:18.215Z,33.31
2022-08-25T11:31:52.859Z,33.47
2022-08-25T11:34:20.803Z,33.55
2022-08-25T11:36:54.085Z,33.78
2022-08-25T11:39:58.252Z,33.68
2022-08-25T11:42:49.004Z,32.73
2022-08-25T11:45:24.878Z,32.78
2022-08-25T11:48:01.068Z,33.24
2022-08-25T11:51:12.805Z,33.37
2022-08-25T11:53:42.256Z,33.46
2022-08-25T11:56:31.775Z,33.40
2022-08-25T11:58:59.419Z,33.26
2022-08-25T12:01:35.727Z,33.06
2022-08-25T12:04:34.015Z,32.78
2022-08-25T12:07:07.529Z,32.75
2022-08-25T12:09:54.662Z,32.86
2022-08-25T12:12:41.499Z,33.20
2022-08-25T12:15:32.809Z,33.41
2022-08-25T12:18:13.907Z,33.59
2022-08-25T12:20:54.480Z,33.64
2022-08-25T12:23:43.022Z,33.53
2022-08-25T12:26:41.535Z,33.34
2022-08-25T12:29:17.142Z,33.43
2022-08-25T12:31:57.168Z,33.25
2022-08-25T12:34:50.779Z,33.56
2022-08-25T12:37:19.628Z,33.76
2022-08-25T12:39:50.404Z,33.78
2022-08-25T12:42:38.412Z,33.57
2022-08-25T12:45:14.196Z,33.22
2022-08-25T12:47:44.939Z,33.04
2022-08-25T12:50:39.459Z,33.22
2022-08-25T12:53:11.592Z,33.43
2022-08-25T12:55:42.285Z,33.35
2022-08-25T12:58:09.178Z,33.40
2022-08-25T13:00:53.141Z,33.50
2022-08-25T13:03:23.175Z,33.67
2022-08-25T13:06:09.232Z,33.91
2022-08-25T13:08:54.627Z,33.80
2022-08-25T13:11:48.126Z,33.84
2022-08-25T13:14:43.964Z,33.85
2022-08-25T13:17:11.900Z,33.76
2022-08-25T13:19:38.685Z,33.50
2022-08-25T13:22:17.759Z,33.61
2022-08-25T13:24:47.322Z,33.50
2022-08-25T13:27:25.071Z,33.52
2022-08-25T13:29:59.135Z,33.61
2022-08-25T13:32:36.742Z,33.63
2022-08-25T13:35:17.809Z,33.65
2022-08-25T13:37:47.083Z,33.64
2022-08-25T13:40:24.591Z,33.55
2022-08-25T13:42:59.619Z,33.66
2022-08-25T13:45:31.658Z,33.58
2022-08-25T13:47:58.974Z,33.61
2022-08-25T13:50:26.522Z,33.63
2022-08-25T13:52:55.181Z,33.66
2022-08-25T13:55:51.117Z,33.76
2022-08-25T13:58:24.228Z,33.90
2022-08-25T14:01:22.903Z,33.95
2022-08-25T14:03:54.822Z,33.99
2022-08-25T14:06:26.914Z,33.99
2022-08-25T14:08:59.829Z,33.94
2022-08-25T14:11:56.828Z,33.90
2022-08-25T14:14:23.480Z,33.91
2022-08-25T14:17:00.793Z,33.87
2022-08-25T14:19:30.028Z,33.85
2022-08-25T14:21:59.993Z,34.01
2022-08-25T14:24:27.284Z,33.87
2022-08-25T14:26:54.925Z,34.03
2022-08-25T14:29:22.296Z,34.03
2022-08-25T14:31:49.284Z,34.04
2022-08-25T14:34:22.699Z,34.08
2022-08-25T14:36:51.276Z,34.17
2022-08-25T14:39:18.264Z,33.95
2022-08-25T14:41:52.513Z,33.63
2022-08-25T14:44:20.548Z,33.41
2022-08-25T14:46:55.004Z,33.16
2022-08-25T14:49:29.866Z,33.06
2022-08-25T14:51:57.621Z,33.25
2022-08-25T14:54:27.050Z,33.50
2022-08-25T14:56:53.772Z,33.66
2022-08-25T14:59:20.631Z,33.78
2022-08-25T15:01:47.566Z,33.85
2022-08-25T15:04:22.606Z,33.97
2022-08-25T15:06:51.908Z,34.08
2022-08-25T15:09:18.659Z,34.10
2022-08-25T15:11:51.911Z,34.08
2022-08-25T15:14:28.517Z,34.14
2022-08-25T15:16:59.886Z,34.18
2022-08-25T15:19:27.610Z,34.21
2022-08-25T15:21:58.272Z,34.29
2022-08-25T15:24:27.545Z,34.15
2022-08-25T15:26:57.185Z,34.22
2022-08-25T15:29:26.350Z,34.35
2022-08-25T15:31:53.537Z,34.31
2022-08-25T15:34:20.297Z,34.37
2022-08-25T15:36:47.482Z,34.37
2022-08-25T15:39:14.875Z,34.42
2022-08-25T15:41:46.891Z,34.52
2022-08-25T15:44:16.203Z,34.47
2022-08-25T15:46:46.936Z,34.43
2022-08-25T15:49:13.926Z,34.30
2022-08-25T15:51:47.600Z,34.29
2022-08-25T15:54:15.087Z,34.20
2022-08-25T15:56:41.795Z,34.12
2022-08-25T15:59:10.077Z,34.11
2022-08-25T16:01:37.244Z,34.05
2022-08-25T16:04:04.079Z,33.92
2022-08-25T16:06:32.076Z,33.78
2022-08-25T16:08:59.101Z,33.84
2022-08-25T16:11:28.972Z,33.64
2022-08-25T16:13:57.919Z,33.62
2022-08-25T16:16:27.126Z,33.58
2022-08-25T16:18:57.212Z,33.38
2022-08-25T16:21:29.087Z,33.39
2022-08-25T16:24:00.332Z,33.59
2022-08-25T16:26:30.744Z,33.77
2022-08-25T16:28:57.481Z,33.72
2022-08-25T16:31:24.292Z,33.72
2022-08-25T16:33:53.557Z,33.60
2022-08-25T16:36:27.084Z,33.55
2022-08-25T16:38:54.598Z,33.64
2022-08-25T16:41:24.841Z,33.67
2022-08-25T16:43:53.219Z,33.72
2022-08-25T16:46:21.305Z,33.78
2022-08-25T16:48:48.677Z,33.83
2022-08-25T16:51:19.307Z,33.63
2022-08-25T16:54:08.301Z,33.55
2022-08-25T16:56:36.302Z,33.58
2022-08-25T16:59:04.841Z,33.87
2022-08-25T17:01:36.403Z,33.94
2022-08-25T17:04:03.995Z,34.04
2022-08-25T17:06:34.338Z,34.25
2022-08-25T17:09:01.229Z,34.31
2022-08-25T17:11:30.400Z,34.15
2022-08-25T17:13:59.856Z,34.15
2022-08-25T17:16:30.185Z,34.01
2022-08-25T17:18:59.675Z,33.63
2022-08-25T17:21:30.700Z,33.43
2022-08-25T17:23:57.989Z,33.30
2022-08-25T17:26:27.765Z,33.27
2022-08-25T17:28:56.532Z,33.23
2022-08-25T17:31:24.187Z,33.08
2022-08-25T17:33:52.596Z,32.95
2022-08-25T17:36:19.761Z,32.91
2022-08-25T17:38:54.449Z,32.77
2022-08-25T17:41:24.166Z,32.65
2022-08-25T17:43:51.020Z,32.63
2022-08-25T17:46:17.913Z,32.44
2022-08-25T17:48:46.298Z,32.35
2022-08-25T17:51:13.363Z,32.17
2022-08-25T17:53:46.902Z,32.22
2022-08-25T17:56:17.601Z,32.15
2022-08-25T17:58:45.539Z,32.14
2022-08-25T18:01:24.322Z,32.08
2022-08-25T18:03:51.823Z,32.01
2022-08-25T18:06:20.282Z,31.97
2022-08-25T18:08:51.218Z,31.94
2022-08-25T18:11:21.801Z,31.89
2022-08-25T18:13:51.244Z,31.85
2022-08-25T18:16:20.725Z,31.79
2022-08-25T18:18:51.935Z,31.76
2022-08-25T18:24:07.207Z,31.76
2022-08-25T18:26:35.434Z,31.71
2022-08-25T18:32:14.045Z,31.54
2022-08-25T18:34:40.804Z,31.48
2022-08-25T18:37:26.085Z,31.43
2022-08-25T18:40:11.419Z,31.35
2022-08-25T18:42:38.619Z,31.35
2022-08-25T18:45:07.851Z,31.31
2022-08-25T18:47:41.506Z,31.30
2022-08-25T18:50:08.609Z,31.27
2022-08-25T18:52:37.930Z,31.18
2022-08-25T18:55:05.242Z,31.15
2022-08-25T18:57:32.288Z,31.03
2022-08-25T18:59:59.216Z,30.98
2022-08-25T19:02:26.558Z,30.96
2022-08-25T19:04:53.273Z,30.90
2022-08-25T19:07:20.044Z,30.86
2022-08-25T19:09:46.849Z,30.84
2022-08-25T19:12:22.499Z,30.84
2022-08-25T19:14:49.648Z,30.78
2022-08-25T19:17:17.227Z,30.77
2022-08-25T19:19:44.787Z,30.77
2022-08-25T19:22:38.081Z,30.69
2022-08-25T19:24:59.030Z,30.66
2022-08-25T19:27:26.228Z,30.59
2022-08-25T19:29:53.130Z,30.54
2022-08-25T19:32:20.278Z,30.46
2022-08-25T19:34:51.341Z,30.42
2022-08-25T19:37:28.830Z,30.37
2022-08-25T19:39:57.449Z,30.29
2022-08-25T19:42:37.049Z,30.23
2022-08-25T19:45:09.937Z,30.24
2022-08-25T19:47:37.798Z,30.24
2022-08-25T19:50:06.558Z,30.20
2022-08-25T19:52:34.703Z,30.19
2022-08-25T19:55:04.162Z,30.09
2022-08-25T19:57:42.310Z,30.06
2022-08-25T20:00:20.706Z,30.12
2022-08-25T20:02:47.969Z,30.13
2022-08-25T20:05:17.103Z,30.15
2022-08-25T20:07:52.187Z,30.08
2022-08-25T20:10:20.736Z,30.06
2022-08-25T20:12:47.619Z,30.04
2022-08-25T20:15:16.545Z,30.04
2022-08-25T20:17:43.876Z,29.98
2022-08-25T20:20:14.580Z,29.95
2022-08-25T20:22:41.420Z,29.93
2022-08-25T20:25:14.976Z,29.90
2022-08-25T20:27:47.317Z,29.84
2022-08-25T20:30:20.614Z,29.84
2022-08-25T20:32:47.372Z,29.83
2022-08-25T20:35:14.847Z,29.89
2022-08-25T20:37:44.001Z,29.79
2022-08-25T20:40:13.495Z,29.70
2022-08-25T20:42:40.651Z,29.70
2022-08-25T20:45:10.780Z,29.76
2022-08-25T20:47:37.687Z,29.71
2022-08-25T20:50:06.970Z,29.60
2022-08-25T20:52:34.865Z,29.57
2022-08-25T20:55:01.637Z,29.50
2022-08-25T20:57:28.280Z,29.49
2022-08-25T20:59:55.637Z,29.52
2022-08-25T21:02:23.858Z,29.50
2022-08-25T21:04:51.257Z,29.44
2022-08-25T21:07:19.104Z,29.40
2022-08-25T21:09:46.377Z,29.40
2022-08-25T21:12:13.279Z,29.33
2022-08-25T21:14:41.866Z,29.25
2022-08-25T21:17:12.082Z,29.18
2022-08-25T21:19:39.936Z,29.15
2022-08-25T21:22:07.670Z,29.16
2022-08-25T21:24:34.693Z,29.09
2022-08-25T21:27:03.334Z,29.02
2022-08-25T21:32:53.058Z,28.95
2022-08-25T21:35:22.401Z,28.94
2022-08-25T21:37:53.244Z,28.96
2022-08-25T21:40:22.905Z,28.95
2022-08-25T21:42:49.919Z,28.91
2022-08-25T21:45:16.668Z,28.90
2022-08-25T21:47:47.732Z,28.80
2022-08-25T21:50:14.419Z,28.82
2022-08-25T21:52:41.214Z,28.73
2022-08-25T21:55:15.750Z,28.64
2022-08-25T21:57:43.343Z,28.64
2022-08-25T22:00:11.721Z,28.59
2022-08-25T22:02:38.598Z,28.51
2022-08-25T22:05:09.280Z,28.43
2022-08-25T22:07:41.688Z,28.44
2022-08-25T22:10:15.879Z,28.37
2022-08-25T22:12:44.358Z,28.33
2022-08-25T22:15:12.422Z,28.25
2022-08-25T22:17:40.543Z,28.20
2022-08-25T22:20:08.538Z,28.14
2022-08-25T22:22:35.998Z,28.07
2022-08-25T22:25:03.101Z,28.05
2022-08-25T22:27:31.846Z,28.01
2022-08-25T22:29:58.618Z,27.99
2022-08-25T22:32:25.641Z,27.99
2022-08-25T22:34:52.801Z,27.96
2022-08-25T22:37:19.680Z,27.95
2022-08-25T22:39:46.831Z,27.88
2022-08-25T22:42:14.048Z,27.84
2022-08-25T22:44:42.486Z,27.86
2022-08-25T22:47:12.541Z,27.81
2022-08-25T22:49:40.171Z,27.72
2022-08-25T22:52:07.246Z,27.74
2022-08-25T22:54:36.674Z,27.76
2022-08-25T22:57:06.723Z,27.69
2022-08-25T22:59:34.295Z,27.62
2022-08-25T23:02:01.194Z,27.59
2022-08-25T23:04:27.996Z,27.53
2022-08-25T23:06:54.845Z,27.48
2022-08-25T23:09:22.028Z,27.50
2022-08-25T23:12:05.336Z,27.34
2022-08-25T23:15:23.882Z,27.18
2022-08-25T23:17:50.737Z,27.24
2022-08-25T23:20:36.534Z,27.16
2022-08-25T23:23:11.866Z,27.18
2022-08-25T23:25:41.639Z,27.11
2022-08-25T23:28:08.376Z,27.00
2022-08-25T23:30:35.126Z,26.94
2022-08-25T23:33:05.839Z,26.96
2022-08-25T23:35:32.579Z,26.80
2022-08-25T23:37:59.310Z,26.68
2022-08-25T23:40:27.817Z,26.70
2022-08-25T23:42:54.851Z,26.57
2022-08-25T23:45:21.453Z,26.62
2022-08-25T23:47:49.623Z,26.63
2022-08-25T23:50:16.449Z,26.42
2022-08-25T23:52:43.136Z,26.33
2022-08-25T23:55:10.453Z,26.21
2022-08-25T23:57:37.102Z,26.24
